Time;durP1;ratioP1;P1;durP2;ratioP2;P2;SDS_P1;SDS_P2;PMS_P1;PMS_P2;Temp;Humidity;BMP_temperature;BMP_pressure;BME280_temperature;BME280_humidity;BME280_pressure;Samples;Min_cycle;Max_cycle;Signal;HPM_P1;HPM_P2
2024/03/30 00:02:17;;;;;;;3.45;1.85;;;;;;;;;;5057515;28;20083;-53
2024/03/30 00:04:43;;;;;;;4.35;1.98;;;;;;;;;;5057563;28;20103;-52
2024/03/30 00:07:09;;;;;;;3.72;1.80;;;;;;;;;;5057722;28;20029;-53
2024/03/30 00:09:36;;;;;;;4.93;2.00;;;;;;;;;;5057584;28;20070;-53
2024/03/30 00:12:02;;;;;;;6.10;2.10;;;;;;;;;;5057591;28;20020;-56
2024/03/30 00:14:29;;;;;;;5.18;2.33;;;;;;;;;;5057359;28;20016;-53
2024/03/30 00:16:55;;;;;;;5.63;2.15;;;;;;;;;;5057180;28;20465;-57
2024/03/30 00:19:20;;;;;;;4.18;2.15;;;;;;;;;;5057345;28;20028;-59
2024/03/30 00:21:47;;;;;;;4.85;2.33;;;;;;;;;;5057163;28;20127;-54
2024/03/30 00:24:13;;;;;;;5.95;2.47;;;;;;;;;;5039653;28;20441;-57
2024/03/30 00:26:40;;;;;;;4.05;2.20;;;;;;;;;;5056986;28;20280;-58
2024/03/30 00:29:06;;;;;;;3.92;2.08;;;;;;;;;;5057060;28;20009;-58
2024/03/30 00:31:33;;;;;;;4.05;2.33;;;;;;;;;;5057263;28;20013;-57
2024/03/30 00:33:59;;;;;;;4.32;2.22;;;;;;;;;;5039452;28;20013;-60
2024/03/30 00:36:26;;;;;;;3.97;2.20;;;;;;;;;;5057564;28;20099;-60
2024/03/30 00:38:52;;;;;;;7.90;2.40;;;;;;;;;;5056935;28;20017;-59
2024/03/30 00:41:19;;;;;;;7.13;2.00;;;;;;;;;;5056921;28;20032;-53
2024/03/30 00:43:46;;;;;;;4.40;2.28;;;;;;;;;;5056884;28;20111;-57
2024/03/30 00:46:12;;;;;;;4.05;2.30;;;;;;;;;;5056135;28;20109;-53
2024/03/30 00:48:38;;;;;;;3.90;2.20;;;;;;;;;;5056780;28;20100;-58
2024/03/30 00:51:05;;;;;;;4.22;2.10;;;;;;;;;;5056663;28;20017;-53
2024/03/30 00:53:31;;;;;;;3.95;2.13;;;;;;;;;;5056900;28;20112;-52
2024/03/30 00:56:00;;;;;;;4.90;2.47;;;;;;;;;;5056565;28;20031;-56
2024/03/30 00:58:28;;;;;;;5.05;2.60;;;;;;;;;;5056782;28;20111;-55
2024/03/30 01:00:54;;;;;;;5.95;3.17;;;;;;;;;;5056397;28;20092;-54
2024/03/30 01:03:21;;;;;;;5.70;3.08;;;;;;;;;;5056402;28;20028;-52
2024/03/30 01:05:48;;;;;;;6.00;2.80;;;;;;;;;;5056275;28;20473;-55
2024/03/30 01:08:14;;;;;;;4.82;2.92;;;;;;;;;;5056295;28;20020;-55
2024/03/30 01:10:41;;;;;;;4.68;3.10;;;;;;;;;;5056508;28;20385;-56
2024/03/30 01:13:08;;;;;;;5.13;3.05;;;;;;;;;;5056409;28;20457;-55
2024/03/30 01:15:33;;;;;;;5.82;2.97;;;;;;;;;;5056141;28;20021;-54
2024/03/30 01:18:00;;;;;;;5.75;2.80;;;;;;;;;;5056088;28;20458;-53
2024/03/30 01:20:26;;;;;;;4.57;2.47;;;;;;;;;;5056056;28;20013;-56
2024/03/30 01:22:53;;;;;;;4.45;2.67;;;;;;;;;;5055980;28;20021;-56
2024/03/30 01:25:19;;;;;;;4.88;2.83;;;;;;;;;;5054874;28;20035;-55
2024/03/30 01:27:46;;;;;;;5.13;2.35;;;;;;;;;;5055866;28;20099;-53
2024/03/30 01:30:12;;;;;;;5.88;1.98;;;;;;;;;;5055902;28;20052;-55
2024/03/30 01:32:39;;;;;;;5.03;2.00;;;;;;;;;;5038235;28;20048;-52
2024/03/30 01:35:06;;;;;;;3.30;1.88;;;;;;;;;;5055809;28;20100;-54
2024/03/30 01:37:32;;;;;;;3.90;1.88;;;;;;;;;;5055962;28;20392;-52
2024/03/30 01:39:59;;;;;;;3.30;2.05;;;;;;;;;;5055855;28;20116;-52
2024/03/30 01:42:29;;;;;;;4.63;2.20;;;;;;;;;;5055576;28;20013;-54
2024/03/30 01:44:56;;;;;;;4.13;2.37;;;;;;;;;;5055543;28;20017;-52
2024/03/30 01:47:22;;;;;;;5.93;2.70;;;;;;;;;;5055980;28;20017;-52
2024/03/30 01:49:50;;;;;;;7.28;2.40;;;;;;;;;;5055548;28;20013;-56
2024/03/30 01:52:18;;;;;;;5.78;2.45;;;;;;;;;;5055881;28;20017;-52
2024/03/30 01:54:44;;;;;;;4.53;2.58;;;;;;;;;;5055455;28;20017;-51
2024/03/30 01:57:13;;;;;;;3.47;2.00;;;;;;;;;;5055102;28;20039;-51
2024/03/30 01:59:39;;;;;;;4.63;2.20;;;;;;;;;;5054854;28;20398;-55
2024/03/30 02:02:08;;;;;;;4.25;1.95;;;;;;;;;;5055319;28;20048;-52
2024/03/30 02:04:39;;;;;;;4.47;2.00;;;;;;;;;;5055201;28;20480;-52
2024/03/30 02:07:06;;;;;;;3.63;1.80;;;;;;;;;;5038226;28;20450;-52
2024/03/30 02:09:33;;;;;;;5.22;2.00;;;;;;;;;;5055673;28;20021;-54
2024/03/30 02:11:59;;;;;;;2.95;1.60;;;;;;;;;;5055433;28;20414;-52
2024/03/30 02:14:26;;;;;;;3.50;1.80;;;;;;;;;;5055127;28;20036;-55
2024/03/30 02:16:51;;;;;;;3.85;1.83;;;;;;;;;;5055031;28;20021;-51
2024/03/30 02:19:19;;;;;;;4.07;1.80;;;;;;;;;;5054896;28;20029;-53
2024/03/30 02:21:45;;;;;;;3.95;1.63;;;;;;;;;;5055243;28;20043;-55
2024/03/30 02:24:11;;;;;;;5.35;1.88;;;;;;;;;;5055237;28;20035;-51
2024/03/30 02:26:37;;;;;;;5.93;2.33;;;;;;;;;;5055139;28;20025;-53
2024/03/30 02:29:04;;;;;;;4.47;2.13;;;;;;;;;;5055012;28;20379;-53
2024/03/30 02:31:31;;;;;;;4.47;2.00;;;;;;;;;;5055234;28;20350;-51
2024/03/30 02:33:58;;;;;;;3.95;1.90;;;;;;;;;;5054983;28;20033;-51
2024/03/30 02:36:25;;;;;;;4.18;2.30;;;;;;;;;;5054971;28;20021;-52
2024/03/30 02:38:52;;;;;;;3.63;2.10;;;;;;;;;;5054594;28;20074;-52
2024/03/30 02:41:19;;;;;;;6.43;1.98;;;;;;;;;;5054677;28;20036;-55
2024/03/30 02:43:46;;;;;;;3.70;1.88;;;;;;;;;;5054839;28;20460;-55
2024/03/30 02:46:12;;;;;;;4.00;2.00;;;;;;;;;;5054679;28;20036;-56
2024/03/30 02:48:39;;;;;;;3.90;1.67;;;;;;;;;;5054431;28;20024;-54
2024/03/30 02:51:06;;;;;;;4.28;1.77;;;;;;;;;;5054349;28;20021;-53
2024/03/30 02:53:32;;;;;;;4.82;1.80;;;;;;;;;;5055646;28;20306;-51
2024/03/30 02:55:58;;;;;;;3.67;2.10;;;;;;;;;;5054425;28;20024;-55
2024/03/30 02:58:25;;;;;;;3.40;1.77;;;;;;;;;;5054633;28;20021;-51
2024/03/30 03:00:51;;;;;;;4.88;2.10;;;;;;;;;;5054549;28;20025;-56
2024/03/30 03:03:18;;;;;;;4.45;1.90;;;;;;;;;;5070818;23;20214;-84
2024/03/30 03:05:44;;;;;;;4.03;1.80;;;;;;;;;;5055454;28;20028;-85
2024/03/30 03:08:11;;;;;;;3.20;1.80;;;;;;;;;;5055377;28;20021;-85
2024/03/30 03:10:37;;;;;;;6.25;2.60;;;;;;;;;;5060753;28;20049;-84
2024/03/30 03:13:04;;;;;;;3.65;1.70;;;;;;;;;;5077864;28;20021;-84
2024/03/30 03:15:30;;;;;;;3.75;1.80;;;;;;;;;;5061558;28;20017;-84
2024/03/30 03:17:57;;;;;;;6.07;2.13;;;;;;;;;;5061861;28;20078;-84
2024/03/30 03:20:23;;;;;;;3.47;1.77;;;;;;;;;;5077572;28;20021;-84
2024/03/30 03:22:50;;;;;;;5.50;2.15;;;;;;;;;;5061482;28;20017;-84
2024/03/30 03:25:16;;;;;;;3.53;1.90;;;;;;;;;;5061616;28;20100;-84
2024/03/30 03:27:43;;;;;;;4.93;2.08;;;;;;;;;;5061703;28;20099;-85
2024/03/30 03:30:09;;;;;;;5.05;2.35;;;;;;;;;;5061419;28;20017;-85
2024/03/30 03:32:36;;;;;;;4.88;1.90;;;;;;;;;;5061736;28;20407;-84
2024/03/30 03:35:02;;;;;;;4.00;1.98;;;;;;;;;;5061450;28;20078;-84
2024/03/30 03:37:29;;;;;;;3.83;2.20;;;;;;;;;;5043959;28;20035;-85
2024/03/30 03:39:56;;;;;;;5.43;1.95;;;;;;;;;;5061459;28;20163;-85
2024/03/30 03:42:22;;;;;;;3.85;2.10;;;;;;;;;;5043676;28;20357;-84
2024/03/30 03:44:49;;;;;;;4.57;2.20;;;;;;;;;;5061926;28;20021;-84
2024/03/30 03:47:15;;;;;;;4.40;2.35;;;;;;;;;;5043443;28;20025;-84
2024/03/30 03:49:41;;;;;;;4.47;2.20;;;;;;;;;;5061167;28;20025;-85
2024/03/30 03:52:08;;;;;;;6.40;2.20;;;;;;;;;;5043634;28;20032;-86
2024/03/30 03:54:34;;;;;;;8.10;2.17;;;;;;;;;;5061652;28;20046;-85
2024/03/30 03:57:01;;;;;;;3.60;2.00;;;;;;;;;;5061295;28;20029;-85
2024/03/30 03:59:28;;;;;;;4.25;2.20;;;;;;;;;;5076693;28;20040;-84
2024/03/30 04:01:53;;;;;;;5.85;2.65;;;;;;;;;;5091060;22;20075;-52
2024/03/30 04:04:18;;;;;;;4.40;2.40;;;;;;;;;;5060424;28;20024;-53
2024/03/30 04:06:43;;;;;;;5.38;2.47;;;;;;;;;;5042590;28;20029;-52
2024/03/30 04:09:09;;;;;;;4.28;2.17;;;;;;;;;;5060429;28;20016;-52
2024/03/30 04:11:35;;;;;;;6.68;2.25;;;;;;;;;;5060380;28;20021;-52
2024/03/30 04:14:00;;;;;;;5.55;2.63;;;;;;;;;;5060340;28;20414;-51
2024/03/30 04:16:25;;;;;;;4.10;2.17;;;;;;;;;;5060580;28;20035;-52
2024/03/30 04:18:51;;;;;;;6.43;2.50;;;;;;;;;;5060323;28;20430;-51
2024/03/30 04:21:16;;;;;;;4.53;2.63;;;;;;;;;;5040084;28;20060;-53
2024/03/30 04:23:42;;;;;;;6.47;2.65;;;;;;;;;;5057188;28;20029;-52
2024/03/30 04:26:07;;;;;;;4.53;2.25;;;;;;;;;;5057020;28;20033;-51
2024/03/30 04:28:33;;;;;;;5.18;2.17;;;;;;;;;;5057052;28;20396;-51
2024/03/30 04:30:59;;;;;;;5.20;2.40;;;;;;;;;;5057298;28;20013;-51
2024/03/30 04:33:24;;;;;;;4.10;2.30;;;;;;;;;;5057396;28;20074;-51
2024/03/30 04:36:03;;;;;;;6.05;2.00;;;;;;;;;;5057490;28;20397;-52
2024/03/30 04:38:28;;;;;;;4.03;2.22;;;;;;;;;;5057469;28;20497;-51
2024/03/30 04:41:07;;;;;;;4.53;2.38;;;;;;;;;;5057292;28;20116;-52
2024/03/30 04:43:33;;;;;;;3.97;2.40;;;;;;;;;;5057408;28;20100;-53
2024/03/30 04:45:59;;;;;;;5.63;2.40;;;;;;;;;;5057067;28;20047;-53
2024/03/30 04:48:25;;;;;;;5.20;2.60;;;;;;;;;;5057112;28;20434;-51
2024/03/30 04:50:50;;;;;;;5.55;2.50;;;;;;;;;;5057068;28;20015;-53
2024/03/30 04:53:17;;;;;;;4.75;2.40;;;;;;;;;;5057023;28;20519;-51
2024/03/30 04:55:49;;;;;;;4.13;2.08;;;;;;;;;;5057213;28;20460;-53
2024/03/30 04:58:14;;;;;;;3.78;2.13;;;;;;;;;;5056999;28;20024;-51
2024/03/30 05:00:39;;;;;;;5.00;2.95;;;;;;;;;;5056931;28;20028;-52
2024/03/30 05:03:04;;;;;;;3.40;2.20;;;;;;;;;;5056758;28;20029;-53
2024/03/30 05:05:29;;;;;;;4.80;2.70;;;;;;;;;;5056862;28;20025;-52
2024/03/30 05:07:55;;;;;;;5.18;2.55;;;;;;;;;;5056794;28;20027;-52
2024/03/30 05:10:20;;;;;;;4.85;2.60;;;;;;;;;;5056740;28;20019;-52
2024/03/30 05:12:45;;;;;;;6.88;2.72;;;;;;;;;;5056697;28;20372;-52
2024/03/30 05:15:10;;;;;;;4.60;2.70;;;;;;;;;;5056693;28;20339;-53
2024/03/30 05:17:36;;;;;;;5.18;2.88;;;;;;;;;;5056628;28;20498;-52
2024/03/30 05:22:44;;;;;;;4.53;2.63;;;;;;;;;;5056900;28;20027;-53
2024/03/30 05:25:10;;;;;;;5.18;2.80;;;;;;;;;;5056438;28;20108;-52
2024/03/30 05:27:35;;;;;;;5.03;2.67;;;;;;;;;;5056652;28;20021;-51
2024/03/30 05:30:02;;;;;;;3.70;2.50;;;;;;;;;;5056377;28;20013;-53
2024/03/30 05:32:27;;;;;;;7.80;2.90;;;;;;;;;;5056478;28;20025;-51
2024/03/30 05:34:52;;;;;;;6.63;2.70;;;;;;;;;;5056284;28;20319;-52
2024/03/30 05:37:17;;;;;;;5.35;2.88;;;;;;;;;;5056199;28;20025;-52
2024/03/30 05:39:42;;;;;;;7.85;2.95;;;;;;;;;;5056218;28;20047;-51
2024/03/30 05:42:08;;;;;;;4.80;2.80;;;;;;;;;;5056822;28;20345;-52
2024/03/30 05:44:33;;;;;;;4.97;2.72;;;;;;;;;;5056133;28;20024;-52
2024/03/30 05:46:59;;;;;;;5.97;2.65;;;;;;;;;;5055957;28;20461;-51
2024/03/30 05:49:24;;;;;;;4.30;2.83;;;;;;;;;;5056066;28;20017;-52
2024/03/30 05:51:50;;;;;;;7.25;3.15;;;;;;;;;;5056223;28;20438;-52
2024/03/30 05:54:15;;;;;;;5.10;3.30;;;;;;;;;;5056137;28;20025;-52
2024/03/30 05:56:40;;;;;;;7.95;3.92;;;;;;;;;;5056081;28;20031;-51
2024/03/30 05:59:05;;;;;;;5.80;3.17;;;;;;;;;;5055980;28;20020;-52
2024/03/30 06:01:30;;;;;;;6.35;3.38;;;;;;;;;;5055637;28;20021;-53
2024/03/30 06:03:56;;;;;;;9.40;3.60;;;;;;;;;;5056008;28;20025;-51
2024/03/30 06:06:21;;;;;;;6.70;3.67;;;;;;;;;;5055578;28;20491;-52
2024/03/30 06:08:47;;;;;;;18.25;5.25;;;;;;;;;;5055656;28;20013;-53
2024/03/30 06:11:12;;;;;;;6.68;3.60;;;;;;;;;;5055655;28;20095;-52
2024/03/30 06:13:37;;;;;;;5.55;3.50;;;;;;;;;;5055524;28;20092;-52
2024/03/30 06:16:03;;;;;;;5.85;3.47;;;;;;;;;;5055580;28;20029;-52
2024/03/30 06:18:29;;;;;;;5.68;3.15;;;;;;;;;;5055730;28;20104;-51
2024/03/30 06:20:54;;;;;;;10.45;4.40;;;;;;;;;;5055395;28;20048;-51
2024/03/30 06:23:19;;;;;;;6.75;3.83;;;;;;;;;;5055316;28;20017;-53
2024/03/30 06:25:44;;;;;;;6.38;3.42;;;;;;;;;;5055231;28;20032;-52
2024/03/30 06:28:10;;;;;;;7.47;3.78;;;;;;;;;;5055250;28;20032;-52
2024/03/30 06:30:35;;;;;;;7.13;3.80;;;;;;;;;;5055259;28;20017;-52
2024/03/30 06:33:01;;;;;;;5.82;3.70;;;;;;;;;;5055145;28;20086;-52
2024/03/30 06:35:26;;;;;;;6.53;3.80;;;;;;;;;;5055164;28;20485;-51
2024/03/30 06:37:51;;;;;;;8.32;3.40;;;;;;;;;;5037596;28;20106;-53
2024/03/30 06:45:44;;;;;;;10.48;4.28;;;;;;;;;;5054827;28;20078;-51
2024/03/30 06:48:09;;;;;;;7.85;3.88;;;;;;;;;;5054920;28;20013;-53
2024/03/30 06:50:35;;;;;;;10.60;4.35;;;;;;;;;;5054941;28;20024;-52
2024/03/30 06:53:00;;;;;;;7.63;3.63;;;;;;;;;;5054960;28;20013;-53
2024/03/30 06:55:25;;;;;;;7.47;3.83;;;;;;;;;;5055206;28;20366;-51
2024/03/30 06:57:50;;;;;;;9.93;4.28;;;;;;;;;;5054571;28;20494;-51
2024/03/30 07:00:15;;;;;;;7.07;3.83;;;;;;;;;;5054849;28;20078;-54
2024/03/30 07:02:41;;;;;;;8.38;4.72;;;;;;;;;;5054842;28;20449;-53
2024/03/30 07:05:06;;;;;;;8.43;4.35;;;;;;;;;;5054774;28;20374;-54
2024/03/30 07:07:31;;;;;;;9.40;4.72;;;;;;;;;;5054672;28;20025;-53
2024/03/30 07:09:57;;;;;;;10.60;3.95;;;;;;;;;;5055512;28;20433;-51
2024/03/30 07:12:22;;;;;;;7.32;3.72;;;;;;;;;;5054721;28;20079;-53
2024/03/30 07:14:47;;;;;;;11.50;3.95;;;;;;;;;;5054805;28;20028;-52
2024/03/30 07:17:12;;;;;;;10.23;3.83;;;;;;;;;;5054662;28;20021;-53
2024/03/30 07:19:39;;;;;;;12.00;3.65;;;;;;;;;;5054911;28;20031;-55
2024/03/30 07:22:04;;;;;;;11.80;3.80;;;;;;;;;;5054660;28;20031;-56
2024/03/30 07:24:32;;;;;;;9.32;3.92;;;;;;;;;;5054567;28;20166;-51
2024/03/30 07:26:57;;;;;;;6.45;3.20;;;;;;;;;;5054515;28;20021;-54
2024/03/30 07:29:23;;;;;;;10.45;3.60;;;;;;;;;;5054517;28;20039;-53
2024/03/30 07:31:49;;;;;;;8.13;3.30;;;;;;;;;;5054786;28;20429;-52
2024/03/30 07:34:14;;;;;;;7.80;3.58;;;;;;;;;;5054515;28;20021;-52
2024/03/30 07:36:39;;;;;;;8.73;3.40;;;;;;;;;;5054446;28;20460;-52
2024/03/30 07:39:04;;;;;;;9.00;3.38;;;;;;;;;;5054715;28;20025;-52
2024/03/30 07:41:29;;;;;;;8.98;3.15;;;;;;;;;;5054358;28;20013;-52
2024/03/30 07:43:55;;;;;;;8.98;3.15;;;;;;;;;;5054388;28;20025;-52
2024/03/30 07:46:20;;;;;;;8.43;2.65;;;;;;;;;;5054599;28;20035;-51
2024/03/30 07:48:45;;;;;;;11.73;2.63;;;;;;;;;;5054335;28;20017;-51
2024/03/30 07:51:10;;;;;;;10.40;2.70;;;;;;;;;;5054350;28;20430;-52
2024/03/30 07:53:36;;;;;;;9.75;2.70;;;;;;;;;;5054347;28;20037;-53
2024/03/30 07:56:01;;;;;;;9.18;2.78;;;;;;;;;;5055026;28;20024;-55
2024/03/30 07:58:26;;;;;;;8.63;2.55;;;;;;;;;;5057521;28;20395;-52
2024/03/30 08:00:51;;;;;;;6.95;2.20;;;;;;;;;;5058052;28;20060;-52
2024/03/30 08:03:16;;;;;;;12.80;2.80;;;;;;;;;;5057918;28;20029;-52
2024/03/30 08:05:51;;;;;;;9.80;2.33;;;;;;;;;;5057851;28;20082;-53
2024/03/30 08:08:16;;;;;;;11.73;2.83;;;;;;;;;;5057938;28;20078;-54
2024/03/30 08:10:41;;;;;;;8.60;2.53;;;;;;;;;;5058182;28;20175;-52
2024/03/30 08:13:07;;;;;;;10.48;2.65;;;;;;;;;;5057697;28;20050;-53
2024/03/30 08:15:36;;;;;;;12.32;2.13;;;;;;;;;;5040035;28;20013;-51
2024/03/30 08:18:01;;;;;;;8.63;2.42;;;;;;;;;;5040446;28;20491;-53
2024/03/30 08:20:27;;;;;;;7.07;2.13;;;;;;;;;;5057717;28;20096;-52
2024/03/30 08:22:52;;;;;;;10.90;2.35;;;;;;;;;;5040039;28;20017;-51
2024/03/30 08:25:17;;;;;;;9.52;2.33;;;;;;;;;;5057597;28;20341;-54
2024/03/30 08:27:42;;;;;;;10.30;2.30;;;;;;;;;;5057708;28;20429;-53
2024/03/30 08:30:08;;;;;;;8.27;2.70;;;;;;;;;;5057495;28;20013;-56
2024/03/30 08:32:33;;;;;;;11.10;2.28;;;;;;;;;;5057405;28;20021;-53
2024/03/30 08:34:58;;;;;;;12.88;2.40;;;;;;;;;;5057355;28;20103;-52
2024/03/30 08:37:23;;;;;;;10.65;2.60;;;;;;;;;;5057402;28;20040;-53
2024/03/30 08:39:49;;;;;;;12.93;2.17;;;;;;;;;;5057489;28;20452;-54
2024/03/30 08:42:14;;;;;;;8.90;2.05;;;;;;;;;;5057063;28;20032;-52
2024/03/30 08:44:39;;;;;;;12.00;2.38;;;;;;;;;;5057373;28;20033;-52
2024/03/30 08:47:04;;;;;;;10.20;2.17;;;;;;;;;;5057130;28;20017;-53
2024/03/30 08:49:30;;;;;;;13.98;2.30;;;;;;;;;;5057136;28;20021;-53
2024/03/30 08:51:55;;;;;;;12.20;2.65;;;;;;;;;;5057163;28;20112;-55
2024/03/30 08:54:20;;;;;;;18.15;3.17;;;;;;;;;;5057061;28;20041;-52
2024/03/30 08:56:45;;;;;;;16.95;2.70;;;;;;;;;;5056775;28;20024;-53
2024/03/30 08:59:11;;;;;;;17.98;3.78;;;;;;;;;;5056854;28;20346;-52
2024/03/30 09:01:37;;;;;;;15.90;2.67;;;;;;;;;;5056752;28;20461;-53
2024/03/30 09:04:02;;;;;;;13.88;2.53;;;;;;;;;;5057183;28;20444;-52
2024/03/30 09:06:27;;;;;;;17.75;2.90;;;;;;;;;;5056654;28;20060;-54
2024/03/30 09:08:52;;;;;;;30.58;3.70;;;;;;;;;;5056326;28;20017;-52
2024/03/30 09:11:17;;;;;;;16.92;2.83;;;;;;;;;;5056681;28;20087;-52
2024/03/30 09:13:43;;;;;;;15.52;3.47;;;;;;;;;;5056669;28;20442;-51
2024/03/30 09:16:08;;;;;;;23.23;3.38;;;;;;;;;;5057408;28;20422;-56
2024/03/30 09:18:33;;;;;;;20.40;3.33;;;;;;;;;;5056569;28;20044;-57
2024/03/30 09:20:59;;;;;;;18.10;2.97;;;;;;;;;;5057026;28;20330;-57
2024/03/30 09:23:24;;;;;;;20.63;3.17;;;;;;;;;;5056836;28;20020;-57
2024/03/30 09:25:50;;;;;;;24.88;2.83;;;;;;;;;;5056395;28;20025;-57
2024/03/30 09:28:15;;;;;;;20.55;3.13;;;;;;;;;;5056391;28;20438;-57
2024/03/30 09:30:40;;;;;;;22.67;3.72;;;;;;;;;;5056402;28;20017;-58
2024/03/30 09:33:06;;;;;;;23.65;3.45;;;;;;;;;;5056412;28;20028;-57
2024/03/30 09:35:31;;;;;;;26.65;3.97;;;;;;;;;;5056191;28;20358;-54
2024/03/30 09:37:56;;;;;;;28.45;3.80;;;;;;;;;;5056179;28;20350;-54
2024/03/30 09:40:21;;;;;;;15.75;3.50;;;;;;;;;;5056695;28;20056;-54
2024/03/30 09:42:49;;;;;;;20.58;3.72;;;;;;;;;;5056135;28;20045;-54
2024/03/30 09:45:14;;;;;;;19.42;3.72;;;;;;;;;;5056115;28;20028;-53
2024/03/30 09:47:40;;;;;;;25.35;4.05;;;;;;;;;;5055882;28;20342;-52
2024/03/30 09:50:09;;;;;;;24.55;4.45;;;;;;;;;;5056248;28;20025;-53
2024/03/30 09:52:36;;;;;;;27.35;4.18;;;;;;;;;;5055921;28;20045;-55
2024/03/30 09:55:09;;;;;;;24.95;3.80;;;;;;;;;;5055878;28;20017;-55
2024/03/30 09:57:34;;;;;;;26.27;4.60;;;;;;;;;;5055823;28;20485;-52
2024/03/30 10:00:00;;;;;;;36.22;4.25;;;;;;;;;;5055748;28;20048;-52
2024/03/30 10:02:25;;;;;;;35.70;5.47;;;;;;;;;;5055693;28;20054;-53
2024/03/30 10:04:50;;;;;;;24.20;4.30;;;;;;;;;;5056000;28;20124;-52
2024/03/30 10:07:20;;;;;;;32.28;5.03;;;;;;;;;;5055825;28;20442;-53
2024/03/30 10:09:45;;;;;;;47.17;5.68;;;;;;;;;;5056377;28;20045;-55
2024/03/30 10:12:30;;;;;;;30.15;4.57;;;;;;;;;;5055545;28;20464;-56
2024/03/30 10:14:58;;;;;;;43.65;5.53;;;;;;;;;;5055537;28;20048;-53
2024/03/30 10:17:23;;;;;;;36.83;5.88;;;;;;;;;;5055379;28;20024;-53
2024/03/30 10:19:49;;;;;;;40.22;5.65;;;;;;;;;;5054598;28;20053;-52
2024/03/30 10:22:14;;;;;;;44.42;5.97;;;;;;;;;;5055622;28;20024;-56
2024/03/30 10:24:40;;;;;;;44.70;6.43;;;;;;;;;;5055399;28;20030;-56
2024/03/30 10:27:05;;;;;;;36.90;5.82;;;;;;;;;;5055217;28;20035;-55
2024/03/30 10:29:30;;;;;;;44.40;7.00;;;;;;;;;;5055469;28;20029;-58
2024/03/30 10:31:55;;;;;;;46.20;6.25;;;;;;;;;;5055258;28;20017;-58
2024/03/30 10:34:21;;;;;;;43.80;5.68;;;;;;;;;;5055162;28;20075;-53
2024/03/30 10:36:47;;;;;;;40.55;6.20;;;;;;;;;;5055432;28;20104;-56
2024/03/30 10:39:13;;;;;;;40.35;6.10;;;;;;;;;;5055800;28;20025;-52
2024/03/30 10:41:40;;;;;;;43.90;6.10;;;;;;;;;;5055091;28;20158;-52
2024/03/30 10:44:05;;;;;;;50.03;7.53;;;;;;;;;;5055014;28;20446;-53
2024/03/30 10:46:31;;;;;;;56.85;7.05;;;;;;;;;;5054971;28;20017;-52
2024/03/30 10:48:56;;;;;;;50.88;6.47;;;;;;;;;;5055187;28;20051;-52
2024/03/30 10:51:23;;;;;;;47.58;7.20;;;;;;;;;;5054903;28;20013;-59
2024/03/30 10:53:48;;;;;;;48.38;6.35;;;;;;;;;;5054906;28;20024;-53
2024/03/30 10:56:14;;;;;;;51.17;6.68;;;;;;;;;;5055364;28;20610;-53
2024/03/30 10:58:39;;;;;;;44.08;6.93;;;;;;;;;;5054309;28;20028;-52
2024/03/30 11:01:05;;;;;;;52.35;7.40;;;;;;;;;;5055369;28;20511;-52
2024/03/30 11:03:31;;;;;;;58.17;8.18;;;;;;;;;;5055014;28;20040;-52
2024/03/30 11:05:57;;;;;;;62.50;9.07;;;;;;;;;;5037773;28;20123;-54
2024/03/30 11:08:25;;;;;;;51.20;8.23;;;;;;;;;;5055014;28;20060;-52
2024/03/30 11:10:50;;;;;;;52.22;7.55;;;;;;;;;;5054700;28;20036;-53
2024/03/30 11:13:15;;;;;;;58.83;9.23;;;;;;;;;;5054954;28;20115;-54
2024/03/30 11:15:41;;;;;;;61.78;8.60;;;;;;;;;;5037177;28;20017;-55
2024/03/30 11:18:12;;;;;;;63.28;8.32;;;;;;;;;;5054613;28;20356;-55
2024/03/30 11:20:42;;;;;;;63.33;9.13;;;;;;;;;;5054676;28;20017;-59
2024/03/30 11:23:07;;;;;;;51.47;9.60;;;;;;;;;;5054517;28;20108;-57
2024/03/30 11:25:34;;;;;;;64.90;8.40;;;;;;;;;;5054462;28;20060;-56
2024/03/30 11:28:06;;;;;;;61.22;8.73;;;;;;;;;;5054424;28;20025;-58
2024/03/30 11:30:35;;;;;;;54.80;8.73;;;;;;;;;;5055710;28;20032;-56
2024/03/30 11:33:06;;;;;;;56.10;7.97;;;;;;;;;;5058786;28;20410;-57
2024/03/30 11:35:34;;;;;;;60.00;9.93;;;;;;;;;;5058676;28;20374;-54
2024/03/30 11:38:05;;;;;;;52.15;7.80;;;;;;;;;;5058516;28;20025;-54
2024/03/30 11:40:31;;;;;;;70.63;9.90;;;;;;;;;;5058841;28;20041;-53
2024/03/30 11:42:56;;;;;;;51.30;7.90;;;;;;;;;;5058277;28;20097;-52
2024/03/30 11:45:25;;;;;;;69.88;9.23;;;;;;;;;;5058384;28;20019;-52
2024/03/30 11:47:51;;;;;;;61.40;8.07;;;;;;;;;;5058142;28;20021;-56
2024/03/30 11:50:16;;;;;;;66.15;8.60;;;;;;;;;;5057949;28;20021;-53
2024/03/30 11:52:45;;;;;;;61.75;9.52;;;;;;;;;;5058110;28;20334;-55
2024/03/30 11:55:10;;;;;;;60.05;8.70;;;;;;;;;;5057988;28;20017;-57
2024/03/30 11:57:35;;;;;;;78.40;10.63;;;;;;;;;;5058448;28;20097;-56
2024/03/30 12:00:00;;;;;;;74.50;10.65;;;;;;;;;;5058110;28;20028;-53
2024/03/30 12:02:29;;;;;;;72.60;9.68;;;;;;;;;;5057895;28;20043;-54
2024/03/30 12:05:00;;;;;;;71.80;9.88;;;;;;;;;;5058030;28;20039;-53
2024/03/30 12:07:30;;;;;;;62.85;9.30;;;;;;;;;;5058188;28;20031;-59
2024/03/30 12:10:00;;;;;;;68.57;9.30;;;;;;;;;;5058279;28;20052;-59
2024/03/30 12:12:27;;;;;;;66.30;9.30;;;;;;;;;;5057840;28;20013;-57
2024/03/30 12:14:53;;;;;;;56.30;8.90;;;;;;;;;;5057764;28;20477;-58
2024/03/30 12:17:18;;;;;;;69.05;8.82;;;;;;;;;;5057725;28;20024;-58
2024/03/30 12:19:46;;;;;;;62.60;9.18;;;;;;;;;;5057634;28;20020;-55
2024/03/30 12:22:11;;;;;;;62.45;9.38;;;;;;;;;;5057680;28;20081;-54
2024/03/30 12:24:36;;;;;;;62.92;9.77;;;;;;;;;;5057601;28;20021;-56
2024/03/30 12:27:02;;;;;;;87.00;9.73;;;;;;;;;;5057530;28;20083;-57
2024/03/30 12:29:27;;;;;;;58.15;9.32;;;;;;;;;;5057476;28;20028;-53
2024/03/30 12:31:53;;;;;;;52.20;7.53;;;;;;;;;;5057504;28;20025;-56
2024/03/30 12:34:20;;;;;;;60.90;8.32;;;;;;;;;;5057486;28;20024;-53
2024/03/30 12:36:46;;;;;;;57.50;7.78;;;;;;;;;;5057369;28;20473;-54
2024/03/30 12:39:11;;;;;;;40.42;7.35;;;;;;;;;;5057369;28;20051;-57
2024/03/30 12:41:36;;;;;;;54.22;8.55;;;;;;;;;;5056901;28;20430;-52
2024/03/30 12:44:06;;;;;;;50.45;7.32;;;;;;;;;;5057074;28;20096;-54
2024/03/30 12:46:31;;;;;;;57.08;8.20;;;;;;;;;;5057068;28;20029;-55
2024/03/30 12:49:03;;;;;;;63.10;7.70;;;;;;;;;;5057176;28;20009;-54
2024/03/30 12:51:30;;;;;;;57.10;7.63;;;;;;;;;;5057174;28;20024;-56
2024/03/30 12:53:56;;;;;;;72.50;9.80;;;;;;;;;;5057059;28;20025;-55
2024/03/30 12:56:25;;;;;;;69.00;8.82;;;;;;;;;;5056475;28;20086;-55
2024/03/30 12:58:50;;;;;;;53.42;7.22;;;;;;;;;;5057131;28;20103;-56
2024/03/30 13:01:17;;;;;;;51.85;7.28;;;;;;;;;;5056680;28;20445;-57
2024/03/30 13:03:42;;;;;;;49.90;7.40;;;;;;;;;;5056853;28;20057;-55
2024/03/30 13:06:10;;;;;;;52.63;8.32;;;;;;;;;;5056864;28;20063;-53
2024/03/30 13:08:40;;;;;;;52.60;9.52;;;;;;;;;;5057016;28;20032;-54
2024/03/30 13:11:05;;;;;;;58.80;9.50;;;;;;;;;;5056801;28;20016;-53
2024/03/30 13:13:31;;;;;;;51.05;7.97;;;;;;;;;;5057045;28;20666;-54
2024/03/30 13:15:56;;;;;;;51.15;7.47;;;;;;;;;;5056767;28;20016;-55
2024/03/30 13:18:25;;;;;;;50.28;8.05;;;;;;;;;;5057116;28;20071;-54
2024/03/30 13:20:51;;;;;;;53.53;8.10;;;;;;;;;;5057018;28;20021;-54
2024/03/30 13:23:19;;;;;;;44.28;6.95;;;;;;;;;;5039219;28;20115;-57
2024/03/30 13:25:44;;;;;;;56.22;7.43;;;;;;;;;;5056386;28;20016;-55
2024/03/30 13:28:10;;;;;;;50.95;6.93;;;;;;;;;;5056379;28;20009;-55
2024/03/30 13:30:35;;;;;;;44.05;6.05;;;;;;;;;;5056357;28;20021;-56
2024/03/30 13:33:01;;;;;;;45.30;7.57;;;;;;;;;;5056391;28;20017;-56
2024/03/30 13:35:26;;;;;;;41.20;6.70;;;;;;;;;;5056273;28;20013;-54
2024/03/30 13:37:51;;;;;;;44.13;6.85;;;;;;;;;;5056563;28;20021;-54
2024/03/30 13:40:16;;;;;;;28.63;4.82;;;;;;;;;;5056184;28;20016;-54
2024/03/30 13:42:41;;;;;;;28.40;5.18;;;;;;;;;;5056124;28;20017;-53
2024/03/30 13:45:07;;;;;;;28.92;4.70;;;;;;;;;;5056089;28;20041;-55
2024/03/30 13:47:32;;;;;;;22.88;4.05;;;;;;;;;;5055980;28;20021;-54
2024/03/30 13:49:58;;;;;;;24.15;3.80;;;;;;;;;;5056259;28;20438;-53
2024/03/30 13:52:23;;;;;;;22.05;3.67;;;;;;;;;;5055946;28;20020;-52
2024/03/30 13:54:48;;;;;;;33.05;3.85;;;;;;;;;;5056085;28;20025;-53
2024/03/30 13:57:14;;;;;;;18.95;3.38;;;;;;;;;;5055897;28;20096;-57
2024/03/30 13:59:42;;;;;;;23.75;3.88;;;;;;;;;;5055807;28;20462;-54
2024/03/30 14:02:10;;;;;;;22.98;3.42;;;;;;;;;;5055742;28;20024;-55
2024/03/30 14:04:36;;;;;;;22.30;3.47;;;;;;;;;;5055755;28;20051;-57
2024/03/30 14:07:01;;;;;;;23.67;3.40;;;;;;;;;;5055583;28;20068;-58
2024/03/30 14:09:26;;;;;;;19.38;3.50;;;;;;;;;;5055866;28;20071;-56
2024/03/30 14:11:52;;;;;;;25.17;3.38;;;;;;;;;;5055838;28;20017;-52
2024/03/30 14:14:17;;;;;;;22.25;2.92;;;;;;;;;;5055553;28;20017;-52
2024/03/30 14:16:42;;;;;;;19.52;4.30;;;;;;;;;;5055509;28;20021;-52
2024/03/30 14:19:07;;;;;;;25.65;3.97;;;;;;;;;;5055451;28;20342;-52
2024/03/30 14:21:33;;;;;;;19.67;3.55;;;;;;;;;;5055643;28;20076;-53
2024/03/30 14:23:58;;;;;;;23.15;3.53;;;;;;;;;;5038008;28;20086;-51
2024/03/30 14:26:23;;;;;;;19.35;3.28;;;;;;;;;;5055350;28;20075;-53
2024/03/30 14:28:48;;;;;;;18.92;2.50;;;;;;;;;;5055192;28;20391;-54
2024/03/30 14:31:14;;;;;;;26.58;2.97;;;;;;;;;;5055411;28;20017;-53
2024/03/30 14:33:39;;;;;;;14.02;2.90;;;;;;;;;;5055684;28;20017;-52
2024/03/30 14:36:05;;;;;;;12.88;2.92;;;;;;;;;;5037709;28;20454;-52
2024/03/30 14:38:30;;;;;;;15.88;2.38;;;;;;;;;;5055186;28;20379;-53